Time;durP1;ratioP1;P1;durP2;ratioP2;P2;SDS_P1;SDS_P2;PMS_P1;PMS_P2;Temp;Humidity;BMP_temperature;BMP_pressure;BME280_temperature;BME280_humidity;BME280_pressure;Samples;Min_cycle;Max_cycle;Signal;HPM_P1;HPM_P2
2022/09/01 00:01:37;;;;;;;1.87;1.77;;;14.90;99.90;14.20;96213.00;;;;5116893;28;20282;-73
2022/09/01 00:04:07;;;;;;;2.27;2.07;;;14.90;99.90;14.30;96215.00;;;;5101116;28;20209;-73
2022/09/01 00:06:39;;;;;;;1.80;1.70;;;14.90;99.90;14.30;96229.00;;;;5122210;28;20218;-70
2022/09/01 00:09:10;;;;;;;0.80;0.80;;;14.90;99.90;14.40;96217.00;;;;5117240;28;20625;-72
2022/09/01 00:11:41;;;;;;;1.10;1.10;;;15.00;99.90;14.50;96217.00;;;;5117058;28;20249;-72
2022/09/01 00:14:09;;;;;;;4.73;3.80;;;15.10;99.90;14.40;96223.00;;;;5117144;28;20217;-72
2022/09/01 00:16:37;;;;;;;2.83;2.20;;;15.10;99.90;14.40;96208.00;;;;5098933;28;20229;-73
2022/09/01 00:19:06;;;;;;;1.33;1.23;;;15.00;99.90;14.40;96207.00;;;;5116633;28;20202;-72
2022/09/01 00:21:39;;;;;;;4.37;2.10;;;15.00;99.90;14.30;96209.00;;;;5116529;28;20202;-72
2022/09/01 00:24:07;;;;;;;0.87;0.87;;;15.00;99.90;14.30;96215.00;;;;5116425;28;20224;-72
2022/09/01 00:26:35;;;;;;;1.80;1.67;;;14.90;99.90;14.30;96213.00;;;;5116474;28;20187;-70
2022/09/01 00:29:01;;;;;;;3.23;2.83;;;15.00;99.90;14.40;96219.00;;;;5116282;28;20237;-69
2022/09/01 00:31:28;;;;;;;0.90;0.90;;;;;14.30;96210.00;;;;5116560;28;20206;-72
2022/09/01 00:33:55;;;;;;;1.23;1.23;;;15.00;99.90;14.30;96203.00;;;;5116220;28;20221;-72
2022/09/01 00:36:22;;;;;;;6.83;2.50;;;15.00;99.90;14.40;96209.00;;;;5116246;28;20247;-72
2022/09/01 00:38:50;;;;;;;1.23;1.23;;;15.00;99.90;14.30;96203.00;;;;5116200;28;20202;-73
2022/09/01 00:41:20;;;;;;;0.77;0.77;;;15.00;99.90;14.30;96199.00;;;;5116371;28;20344;-70
2022/09/01 00:43:50;;;;;;;1.03;1.03;;;15.00;99.90;14.30;96200.00;;;;5116319;28;20284;-69
2022/09/01 00:46:20;;;;;;;1.07;1.07;;;15.00;99.90;14.20;96200.00;;;;5116310;28;20228;-73
2022/09/01 00:48:52;;;;;;;1.27;1.27;;;14.90;99.90;14.20;96196.00;;;;5116489;28;20198;-71
2022/09/01 00:51:19;;;;;;;0.73;0.73;;;14.90;99.90;14.30;96203.00;;;;5119260;28;20222;-72
2022/09/01 00:53:46;;;;;;;1.20;1.20;;;14.90;99.90;14.30;96200.00;;;;5115111;28;20204;-73
2022/09/01 00:56:14;;;;;;;1.00;1.00;;;15.00;99.90;14.20;96196.00;;;;5115866;28;20633;-72
2022/09/01 00:58:42;;;;;;;0.80;0.80;;;14.90;99.90;14.20;96188.00;;;;5115969;28;20270;-72
2022/09/01 01:01:11;;;;;;;0.80;0.80;;;14.90;99.90;14.10;96200.00;;;;5115966;28;20197;-72
2022/09/01 01:03:43;;;;;;;1.03;1.03;;;14.80;99.90;14.00;96199.00;;;;5116056;28;20269;-73
2022/09/01 01:06:12;;;;;;;1.07;1.07;;;14.70;99.90;14.10;96206.00;;;;5116181;28;20224;-72
2022/09/01 01:08:50;;;;;;;2.33;1.97;;;14.80;99.90;14.10;96197.00;;;;5116048;28;20302;-72
2022/09/01 01:11:19;;;;;;;1.53;1.47;;;14.80;99.90;14.10;96206.00;;;;5116131;28;20190;-72
2022/09/01 01:13:53;;;;;;;0.80;0.80;;;14.70;99.90;14.00;96208.00;;;;5115769;28;20221;-72
2022/09/01 01:16:22;;;;;;;0.60;0.60;;;14.70;99.90;13.90;96198.00;;;;5116042;28;20585;-71
2022/09/01 01:18:49;;;;;;;1.17;1.17;;;14.60;99.90;13.80;96198.00;;;;5124166;28;20214;-73
2022/09/01 01:24:21;;;;;;;0.70;0.70;;;14.40;99.90;13.80;96199.00;;;;5115553;28;20532;-72
2022/09/01 01:26:48;;;;;;;1.00;1.00;;;14.50;99.90;13.80;96194.00;;;;5115509;28;20294;-72
2022/09/01 01:29:16;;;;;;;1.50;1.40;;;14.50;99.90;13.80;96187.00;;;;5115476;28;20633;-72
2022/09/01 01:31:43;;;;;;;1.37;1.37;;;14.50;99.90;13.90;96194.00;;;;5115499;28;20202;-72
2022/09/01 01:34:12;;;;;;;2.20;2.10;;;14.50;99.90;13.90;96196.00;;;;5115491;28;20213;-72
2022/09/01 01:36:40;;;;;;;1.27;1.27;;;14.50;99.90;13.80;96192.00;;;;5115314;28;20232;-73
2022/09/01 01:39:11;;;;;;;1.70;1.60;;;;;13.80;96197.00;;;;5115301;28;20210;-72
2022/09/01 01:41:44;;;;;;;2.17;1.97;;;;;13.80;96189.00;;;;5115441;28;20232;-74
2022/09/01 01:44:15;;;;;;;3.27;2.80;;;;;13.80;96190.00;;;;5097285;28;20181;-72
2022/09/01 01:46:44;;;;;;;1.37;1.27;;;;;13.80;96186.00;;;;5115008;28;20241;-72
2022/09/01 01:49:18;;;;;;;2.37;2.17;;;;;13.80;96192.00;;;;5115154;28;20205;-73
2022/09/01 01:51:46;;;;;;;1.10;1.10;;;;;13.80;96194.00;;;;5115223;28;20186;-71
2022/09/01 01:54:14;;;;;;;1.37;1.33;;;;;13.80;96188.00;;;;5115194;28;20201;-73
2022/09/01 01:56:44;;;;;;;1.77;1.50;;;;;13.80;96199.00;;;;5115150;28;20271;-73
2022/09/01 01:59:15;;;;;;;1.90;1.80;;;;;13.90;96195.00;;;;5115030;28;20263;-74
2022/09/01 02:01:43;;;;;;;1.30;1.30;;;;;14.00;96200.00;;;;5115035;28;20189;-73
2022/09/01 02:04:10;;;;;;;1.43;1.33;;;;;14.00;96205.00;;;;5114741;28;20218;-72
2022/09/01 02:06:40;;;;;;;1.10;1.10;;;;;14.00;96201.00;;;;5114821;28;20230;-72
2022/09/01 02:09:07;;;;;;;1.47;1.37;;;;;13.90;96204.00;;;;5114787;28;20232;-73
2022/09/01 02:11:36;;;;;;;0.93;0.93;;;;;14.00;96201.00;;;;5114911;28;20269;-69
2022/09/01 02:14:05;;;;;;;1.70;1.60;;;;;14.00;96195.00;;;;5114757;28;20204;-73
2022/09/01 02:16:33;;;;;;;1.90;1.80;;;;;13.90;96200.00;;;;5114852;28;20652;-73
2022/09/01 02:19:02;;;;;;;1.40;1.37;;;;;14.00;96202.00;;;;5114850;28;20194;-73
2022/09/01 02:21:29;;;;;;;1.87;1.77;;;;;14.00;96200.00;;;;5114590;28;20222;-72
2022/09/01 02:23:59;;;;;;;1.97;1.40;;;;;14.00;96195.00;;;;5114555;28;20548;-71
2022/09/01 02:26:31;;;;;;;1.40;1.40;;;;;14.00;96196.00;;;;5114494;28;20234;-73
2022/09/01 02:29:03;;;;;;;2.13;2.03;;;;;14.00;96193.00;;;;5114500;28;20198;-73
2022/09/01 02:31:34;;;;;;;1.93;1.83;;;;;14.00;96191.00;;;;5096661;28;20668;-73
2022/09/01 02:34:01;;;;;;;2.33;2.13;;;;;13.80;96190.00;;;;5114525;28;20293;-72
2022/09/01 02:36:31;;;;;;;2.20;2.00;;;;;13.80;96187.00;;;;5114429;28;20535;-72
2022/09/01 02:38:58;;;;;;;2.93;2.73;;;;;13.80;96190.00;;;;5114425;28;20277;-72
2022/09/01 02:41:31;;;;;;;2.20;2.10;;;;;13.90;96190.00;;;;5096581;28;20194;-73
2022/09/01 02:44:01;;;;;;;2.67;2.00;;;;;13.90;96187.00;;;;5114218;28;20210;-72
2022/09/01 02:46:28;;;;;;;2.10;2.00;;;;;13.90;96197.00;;;;5114145;28;20558;-72
2022/09/01 02:48:59;;;;;;;2.33;2.17;;;;;13.90;96196.00;;;;5114120;28;20253;-72
2022/09/01 02:51:28;;;;;;;1.27;1.27;;;;;14.00;96196.00;;;;5096127;28;20214;-72
2022/09/01 02:53:55;;;;;;;2.50;2.27;;;;;13.90;96184.00;;;;5114116;28;20221;-72
2022/09/01 02:56:23;;;;;;;2.00;1.83;;;;;14.00;96182.00;;;;5114203;28;20202;-71
2022/09/01 02:58:50;;;;;;;2.40;2.30;;;;;14.00;96186.00;;;;5114069;28;20210;-72
2022/09/01 03:01:21;;;;;;;3.00;2.30;;;;;14.00;96182.00;;;;5114128;28;20186;-72
2022/09/01 03:03:49;;;;;;;2.77;2.57;;;;;13.90;96181.00;;;;5114131;28;20194;-73
2022/09/01 03:06:18;;;;;;;1.83;1.73;;;;;13.90;96184.00;;;;5113930;28;20232;-71
2022/09/01 03:08:46;;;;;;;2.30;2.20;;;;;13.90;96184.00;;;;5113930;28;20204;-73
2022/09/01 03:11:13;;;;;;;2.20;2.10;;;;;13.90;96182.00;;;;5114141;28;20222;-72
2022/09/01 03:13:40;;;;;;;2.13;2.00;;;;;13.90;96189.00;;;;5114050;28;20190;-70
2022/09/01 03:16:09;;;;;;;2.07;1.87;;;;;13.80;96181.00;;;;5113155;28;20237;-73
2022/09/01 03:18:39;;;;;;;2.40;2.17;;;;;13.70;96185.00;;;;5114084;28;20515;-72
2022/09/01 03:21:07;;;;;;;1.80;1.70;;;14.40;99.90;13.70;96185.00;;;;5113994;28;20617;-71
2022/09/01 03:23:37;;;;;;;2.17;2.07;;;14.40;99.90;13.70;96186.00;;;;5113873;28;20566;-72
2022/09/01 03:26:04;;;;;;;2.90;2.70;;;14.40;99.90;13.70;96202.00;;;;5114090;28;20286;-72
2022/09/01 03:28:31;;;;;;;1.43;1.43;;;14.50;99.90;13.80;96198.00;;;;5113856;28;20236;-72
2022/09/01 03:30:59;;;;;;;3.03;2.83;;;14.40;99.90;13.80;96199.00;;;;5096306;28;20747;-72
2022/09/01 03:33:27;;;;;;;1.23;1.23;;;14.40;99.90;13.80;96196.00;;;;5095584;28;20226;-71
2022/09/01 03:35:55;;;;;;;2.07;1.97;;;14.50;99.90;13.80;96195.00;;;;5113601;28;20229;-72
2022/09/01 03:38:25;;;;;;;2.67;2.50;;;14.50;99.90;13.80;96191.00;;;;5113476;28;20221;-72
2022/09/01 03:41:00;;;;;;;2.37;2.27;;;14.50;99.90;13.80;96194.00;;;;5113638;28;20209;-72
2022/09/01 03:43:28;;;;;;;2.13;2.03;;;14.50;99.90;13.80;96205.00;;;;5113777;28;20290;-71
2022/09/01 03:45:59;;;;;;;2.13;2.03;;;14.50;99.90;13.80;96192.00;;;;5113472;28;20220;-72
2022/09/01 03:48:28;;;;;;;3.10;2.90;;;14.50;99.90;13.80;96189.00;;;;5113482;28;20692;-73
2022/09/01 03:50:59;;;;;;;2.47;2.27;;;14.50;99.90;13.80;96186.00;;;;5113698;28;20225;-71
2022/09/01 03:53:26;;;;;;;3.73;3.43;;;14.40;99.90;13.70;96185.00;;;;5119110;28;20222;-71
2022/09/01 03:55:56;;;;;;;1.80;1.70;;;14.30;99.90;13.70;96186.00;;;;5118494;28;20225;-72
2022/09/01 03:58:24;;;;;;;1.87;1.77;;;14.30;99.90;13.70;96183.00;;;;5113563;28;20557;-72
2022/09/01 04:00:54;;;;;;;1.97;1.87;;;14.30;99.90;13.70;96183.00;;;;5095401;28;20226;-72
2022/09/01 04:03:23;;;;;;;3.17;2.97;;;14.30;99.90;13.60;96174.00;;;;5113333;28;20277;-70
2022/09/01 04:05:52;;;;;;;1.90;1.80;;;14.30;99.90;13.50;96178.00;;;;5113065;28;20218;-72
2022/09/01 04:08:24;;;;;;;1.87;1.67;;;14.20;99.90;13.50;96183.00;;;;5113104;28;20214;-71
2022/09/01 04:10:53;;;;;;;3.27;3.00;;;14.20;99.90;13.60;96183.00;;;;5113283;28;20209;-73
2022/09/01 04:13:24;;;;;;;2.10;2.00;;;14.20;99.90;13.50;96186.00;;;;5113301;28;20847;-72
2022/09/01 04:15:52;;;;;;;2.50;2.40;;;14.10;99.90;13.50;96191.00;;;;5113145;28;20230;-72
2022/09/01 04:18:19;;;;;;;3.00;2.80;;;14.10;99.90;13.40;96188.00;;;;5113004;28;20222;-72
2022/09/01 04:20:48;;;;;;;2.37;2.27;;;14.00;99.90;13.30;96188.00;;;;5112987;28;20295;-71
2022/09/01 04:23:22;;;;;;;2.97;2.57;;;14.00;99.90;13.40;96186.00;;;;5112989;28;20304;-72
2022/09/01 04:25:50;;;;;;;3.00;2.83;;;14.00;99.90;13.40;96190.00;;;;5112954;28;20222;-73
2022/09/01 04:28:23;;;;;;;2.20;2.10;;;14.00;99.90;13.40;96189.00;;;;5114410;28;20208;-72
2022/09/01 04:30:54;;;;;;;2.57;2.37;;;14.10;99.90;13.40;96176.00;;;;5116523;28;20205;-72
2022/09/01 04:33:23;;;;;;;2.90;2.80;;;14.00;99.90;13.30;96187.00;;;;5098677;28;20282;-72
2022/09/01 04:35:50;;;;;;;2.47;2.37;;;14.00;99.90;13.30;96194.00;;;;5116321;28;20684;-71
2022/09/01 04:38:17;;;;;;;3.07;2.87;;;13.90;99.90;13.30;96187.00;;;;5116231;28;20194;-71
2022/09/01 04:40:43;;;;;;;2.83;2.60;;;14.00;99.90;13.40;96184.00;;;;5116212;28;20300;-69
2022/09/01 04:43:11;;;;;;;3.10;2.90;;;14.00;99.90;13.50;96189.00;;;;5116297;28;20206;-72
2022/09/01 04:45:38;;;;;;;2.33;2.20;;;14.10;99.90;13.50;96199.00;;;;5119260;28;20228;-72
2022/09/01 04:48:06;;;;;;;2.33;2.23;;;14.20;99.90;13.50;96197.00;;;;5118215;28;20194;-72
2022/09/01 04:50:36;;;;;;;4.20;3.80;;;14.20;99.90;13.50;96201.00;;;;5098446;28;20222;-72
2022/09/01 04:53:05;;;;;;;2.77;2.67;;;14.20;99.90;13.60;96196.00;;;;5116263;28;20210;-70
2022/09/01 04:55:32;;;;;;;2.70;2.60;;;14.20;99.90;13.50;96204.00;;;;5116468;28;20281;-73
2022/09/01 04:58:00;;;;;;;2.77;2.57;;;14.20;99.90;13.50;96196.00;;;;5121611;28;20198;-73
2022/09/01 05:00:31;;;;;;;2.77;2.60;;;;;13.60;96199.00;;;;5118445;28;20193;-72
2022/09/01 05:03:04;;;;;;;1.83;1.73;;;14.20;99.90;13.50;96206.00;;;;5118335;28;20237;-72
2022/09/01 05:05:41;;;;;;;2.20;2.00;;;14.10;99.90;13.40;96198.00;;;;5118408;28;20588;-69
2022/09/01 05:08:13;;;;;;;2.87;2.67;;;14.10;99.90;13.40;96198.00;;;;5118347;28;20313;-72
2022/09/01 05:10:43;;;;;;;4.30;3.13;;;14.10;99.90;13.50;96199.00;;;;5118548;28;20237;-72
2022/09/01 05:13:12;;;;;;;7.67;4.00;;;14.20;99.90;13.60;96188.00;;;;5118282;28;20218;-73
2022/09/01 05:15:45;;;;;;;3.07;2.70;;;14.20;99.90;13.60;96187.00;;;;5100349;28;20583;-74
2022/09/01 05:18:14;;;;;;;2.97;2.77;;;14.30;99.90;13.70;96198.00;;;;5118328;28;20202;-72
2022/09/01 05:20:42;;;;;;;2.30;2.13;;;14.30;99.90;13.70;96191.00;;;;5100240;28;20561;-70
2022/09/01 05:23:11;;;;;;;2.33;2.17;;;14.40;99.90;13.70;96199.00;;;;5115685;28;20194;-71
2022/09/01 05:25:42;;;;;;;2.57;2.37;;;14.40;99.90;13.70;96193.00;;;;5097656;28;20583;-71
2022/09/01 05:28:11;;;;;;;1.77;1.67;;;14.40;99.90;13.80;96196.00;;;;5097661;28;20198;-70
2022/09/01 05:30:41;;;;;;;2.40;2.30;;;14.50;99.90;13.90;96185.00;;;;5115543;28;20225;-72
2022/09/01 05:33:10;;;;;;;1.97;1.87;;;14.50;99.90;13.90;96198.00;;;;5115620;28;20221;-71
2022/09/01 05:35:42;;;;;;;2.93;2.73;;;14.60;99.90;14.00;96196.00;;;;5115718;28;20227;-72
2022/09/01 05:38:12;;;;;;;3.47;3.23;;;14.60;99.90;14.00;96195.00;;;;5118057;28;20182;-75
2022/09/01 05:40:43;;;;;;;3.73;2.60;;;14.60;99.90;14.00;96194.00;;;;5118820;28;20206;-74
2022/09/01 05:43:12;;;;;;;3.83;2.77;;;14.60;99.90;14.20;96181.00;;;;5115537;28;20731;-74
2022/09/01 05:45:43;;;;;;;2.70;2.50;;;14.80;99.90;14.30;96188.00;;;;5115150;28;20641;-72
2022/09/01 05:48:12;;;;;;;1.83;1.60;;;14.90;99.90;14.50;96185.00;;;;5115320;28;20233;-72
2022/09/01 05:50:42;;;;;;;1.77;1.67;;;15.00;99.90;14.50;96186.00;;;;5115217;28;20230;-71
2022/09/01 05:53:14;;;;;;;1.60;1.50;;;15.00;99.90;14.60;96187.00;;;;5115213;28;20606;-73
2022/09/01 05:55:43;;;;;;;2.40;2.23;;;15.10;99.90;14.60;96192.00;;;;5115224;28;20246;-72
2022/09/01 05:58:12;;;;;;;3.40;3.00;;;15.10;99.10;14.70;96190.00;;;;5115128;28;20309;-74
2022/09/01 06:00:42;;;;;;;1.70;1.60;;;15.20;98.40;14.50;96184.00;;;;5115245;28;20174;-76
2022/09/01 06:03:09;;;;;;;1.57;1.47;;;15.10;97.90;14.40;96184.00;;;;5115118;28;20259;-72
2022/09/01 06:05:37;;;;;;;3.50;2.00;;;15.00;97.80;14.50;96183.00;;;;5114844;28;20265;-72
2022/09/01 06:08:09;;;;;;;2.93;2.73;;;15.00;98.40;14.50;96174.00;;;;5114941;28;20186;-73
2022/09/01 06:10:38;;;;;;;2.23;2.13;;;15.00;99.50;14.60;96167.00;;;;5096666;28;20282;-73
2022/09/01 06:13:06;;;;;;;2.50;2.40;;;15.10;98.90;14.60;96174.00;;;;5114812;28;20210;-72
2022/09/01 06:15:33;;;;;;;3.63;2.97;;;15.20;99.90;14.60;96174.00;;;;5114626;28;20221;-71
2022/09/01 06:17:59;;;;;;;1.77;1.67;;;15.20;98.70;14.80;96173.00;;;;5114582;28;20198;-72
2022/09/01 06:20:26;;;;;;;2.90;2.70;;;15.40;99.60;14.90;96173.00;;;;5114514;28;20244;-67
2022/09/01 06:22:53;;;;;;;1.90;1.80;;;15.40;98.10;14.90;96164.00;;;;5114337;28;20210;-67
2022/09/01 06:25:20;;;;;;;2.70;2.50;;;15.40;97.80;15.00;96175.00;;;;5114338;28;20222;-67
2022/09/01 06:27:47;;;;;;;2.70;2.50;;;15.50;97.50;14.90;96171.00;;;;5114252;28;20218;-67
2022/09/01 06:30:19;;;;;;;1.73;1.63;;;15.40;96.70;14.80;96178.00;;;;5114381;28;20202;-69
2022/09/01 06:32:48;;;;;;;2.80;2.70;;;15.30;97.90;15.00;96174.00;;;;5114140;28;20217;-69
2022/09/01 06:35:17;;;;;;;3.00;2.80;;;15.50;97.90;15.00;96174.00;;;;5114262;28;20329;-69
2022/09/01 06:37:45;;;;;;;2.07;1.97;;;15.50;96.80;15.00;96187.00;;;;5114461;28;20197;-69
2022/09/01 06:40:16;;;;;;;1.50;1.40;;;15.50;97.20;14.90;96181.00;;;;5114406;28;20214;-69
2022/09/01 06:42:46;;;;;;;2.00;1.90;;;15.50;96.70;15.00;96178.00;;;;5114319;28;20194;-69
2022/09/01 06:45:14;;;;;;;1.60;1.50;;;15.60;96.60;15.10;96181.00;;;;5114212;28;20248;-71
2022/09/01 06:47:43;;;;;;;2.50;2.40;;;15.60;97.20;15.10;96183.00;;;;5096474;28;20206;-69
2022/09/01 06:50:13;;;;;;;2.33;2.23;;;15.60;96.70;15.30;96190.00;;;;5113197;28;20296;-70
2022/09/01 06:52:41;;;;;;;14.33;2.77;;;15.80;95.40;15.30;96191.00;;;;5114095;28;20202;-70
2022/09/01 06:55:11;;;;;;;1.30;1.20;;;15.80;96.10;15.40;96201.00;;;;5113899;28;20229;-70
2022/09/01 06:57:39;;;;;;;1.93;1.83;;;15.90;95.50;15.40;96189.00;;;;5096371;28;20220;-67
2022/09/01 07:00:16;;;;;;;1.97;1.87;;;16.00;94.20;15.50;96188.00;;;;5114050;28;20186;-69
2022/09/01 07:02:44;;;;;;;3.63;2.77;;;16.00;95.00;15.70;96195.00;;;;5114015;28;20224;-69
2022/09/01 07:05:16;;;;;;;3.23;3.03;;;16.10;95.40;15.70;96197.00;;;;5096026;28;20233;-70
2022/09/01 07:07:46;;;;;;;3.77;3.47;;;16.20;95.00;15.70;96196.00;;;;5113869;28;20225;-69
2022/09/01 07:10:13;;;;;;;2.53;2.27;;;16.20;95.80;15.90;96208.00;;;;5113960;28;20225;-70
2022/09/01 07:12:44;;;;;;;2.90;2.00;;;16.30;95.60;15.80;96208.00;;;;5113549;28;20197;-70
2022/09/01 07:15:16;;;;;;;3.77;3.43;;;16.30;95.30;15.90;96211.00;;;;5113977;28;20206;-69
2022/09/01 07:17:47;;;;;;;1.30;1.30;;;16.30;94.30;15.80;96202.00;;;;5113892;28;20217;-70
2022/09/01 07:20:14;;;;;;;2.13;2.03;;;16.40;94.60;16.10;96214.00;;;;5113831;28;20226;-67
2022/09/01 07:22:41;;;;;;;2.47;2.27;;;;;16.40;96214.00;;;;5113765;28;20209;-68
2022/09/01 07:25:11;;;;;;;2.43;2.23;;;16.80;94.20;16.60;96214.00;;;;5113661;28;20256;-69
2022/09/01 07:27:45;;;;;;;1.17;1.17;;;16.90;93.60;16.60;96204.00;;;;5113715;28;20255;-69
2022/09/01 07:30:18;;;;;;;1.80;1.70;;;17.10;92.00;16.70;96219.00;;;;5113586;28;20221;-70
2022/09/01 07:32:46;;;;;;;5.33;2.57;;;;;16.80;96216.00;;;;5113698;28;20284;-71
2022/09/01 07:35:20;;;;;;;3.10;1.77;;;17.20;91.70;16.90;96215.00;;;;5095684;28;20194;-70
2022/09/01 07:37:47;;;;;;;2.67;2.47;;;17.30;91.70;17.00;96222.00;;;;5113697;28;20186;-68
2022/09/01 07:40:19;;;;;;;2.37;2.20;;;17.50;90.50;17.00;96213.00;;;;5095822;28;20210;-68
2022/09/01 07:42:46;;;;;;;1.20;1.20;;;17.50;88.80;16.90;96211.00;;;;5113686;28;20217;-70
2022/09/01 07:45:16;;;;;;;2.37;2.00;;;17.40;88.60;17.00;96219.00;;;;5113609;28;20217;-67
2022/09/01 07:47:43;;;;;;;2.33;2.13;;;17.50;88.70;17.00;96215.00;;;;5113354;28;20290;-69
2022/09/01 07:50:14;;;;;;;2.37;2.23;;;17.50;88.80;17.20;96210.00;;;;5113364;28;20582;-67
2022/09/01 07:52:42;;;;;;;2.07;1.97;;;17.60;89.90;17.40;96218.00;;;;5095389;28;20227;-67
2022/09/01 07:55:10;;;;;;;1.67;1.57;;;17.80;89.70;17.50;96218.00;;;;5095351;28;20229;-67
2022/09/01 07:57:37;;;;;;;2.23;2.10;;;17.90;89.10;17.60;96228.00;;;;5113176;28;20206;-67
2022/09/01 08:00:06;;;;;;;2.47;2.27;;;18.00;89.60;17.80;96229.00;;;;5113207;28;20248;-70
2022/09/01 08:02:35;;;;;;;1.70;1.60;;;18.30;88.80;18.00;96217.00;;;;5115325;28;20190;-71
2022/09/01 08:05:02;;;;;;;1.73;1.63;;;18.40;85.90;18.00;96237.00;;;;5116754;28;20221;-68
2022/09/01 08:07:30;;;;;;;1.80;1.70;;;18.40;85.20;18.10;96230.00;;;;5117039;28;20259;-67
2022/09/01 08:09:59;;;;;;;3.30;2.20;;;18.50;84.20;18.20;96230.00;;;;5116793;28;20259;-68
2022/09/01 08:12:26;;;;;;;1.03;1.03;;;18.60;85.50;18.20;96234.00;;;;5117070;28;20232;-70
2022/09/01 08:14:53;;;;;;;1.53;1.43;;;18.70;84.70;18.40;96237.00;;;;5116836;28;20641;-69
2022/09/01 08:17:20;;;;;;;1.57;1.47;;;18.80;83.50;18.40;96239.00;;;;5116709;28;20247;-64
2022/09/01 08:19:49;;;;;;;0.87;0.87;;;18.90;82.60;18.10;96243.00;;;;5116716;28;20301;-67
2022/09/01 08:22:16;;;;;;;1.23;1.23;;;18.70;82.40;18.40;96228.00;;;;5116449;28;20249;-68
2022/09/01 08:24:42;;;;;;;1.27;1.27;;;18.80;82.60;18.30;96236.00;;;;5098557;28;20237;-68
2022/09/01 08:27:09;;;;;;;2.13;2.03;;;;;18.30;96238.00;;;;5098571;28;20214;-67
2022/09/01 08:29:36;;;;;;;0.90;0.90;;;18.70;81.30;18.40;96238.00;;;;5116531;28;20201;-72
2022/09/01 08:32:03;;;;;;;1.63;1.53;;;18.90;80.50;18.00;96244.00;;;;5116662;28;20202;-68
2022/09/01 08:34:32;;;;;;;1.20;1.17;;;18.60;81.10;18.00;96240.00;;;;5116607;28;20233;-68
2022/09/01 08:36:59;;;;;;;2.17;1.83;;;18.60;80.70;18.20;96247.00;;;;5116585;28;20194;-68
2022/09/01 08:39:26;;;;;;;2.50;2.23;;;18.60;81.60;18.10;96243.00;;;;5116240;28;20222;-66
2022/09/01 08:42:07;;;;;;;1.40;1.30;;;18.60;80.90;18.20;96235.00;;;;5116193;28;20202;-68
2022/09/01 08:44:50;;;;;;;1.27;1.27;;;18.70;81.20;18.10;96251.00;;;;5116287;28;20510;-68
2022/09/01 08:47:19;;;;;;;0.87;0.87;;;18.60;79.90;18.00;96249.00;;;;5116082;28;20232;-68
2022/09/01 08:49:48;;;;;;;2.20;1.10;;;18.50;79.20;18.00;96250.00;;;;5116287;28;20198;-68
2022/09/01 08:52:28;;;;;;;1.17;1.07;;;18.50;78.90;18.00;96249.00;;;;5115998;28;20253;-69
2022/09/01 08:55:01;;;;;;;1.40;1.00;;;18.40;77.20;17.90;96248.00;;;;5116113;28;20695;-68
2022/09/01 08:57:34;;;;;;;0.80;0.80;;;18.40;77.00;18.20;96249.00;;;;5115874;28;20218;-68
2022/09/01 09:00:08;;;;;;;1.47;1.37;;;18.60;77.50;18.20;96253.00;;;;5097994;28;20218;-68
2022/09/01 09:02:50;;;;;;;1.63;1.53;;;18.70;76.50;18.40;96248.00;;;;5115803;28;20237;-68
2022/09/01 09:05:34;;;;;;;1.20;1.20;;;18.80;76.50;18.70;96244.00;;;;5115767;28;20507;-70
2022/09/01 09:08:33;;;;;;;1.00;1.00;;;19.00;75.90;18.80;96251.00;;;;5115785;28;20229;-68
2022/09/01 09:11:02;;;;;;;1.20;1.17;;;;;19.00;96252.00;;;;5115249;28;20285;-69
2022/09/01 09:13:47;;;;;;;0.97;0.97;;;19.40;73.80;18.90;96233.00;;;;5114803;28;20194;-69
2022/09/01 09:16:23;;;;;;;0.60;0.60;;;19.40;74.20;18.90;96252.00;;;;5115632;28;20210;-69
2022/09/01 09:18:56;;;;;;;0.87;0.87;;;19.40;73.80;19.10;96256.00;;;;5115657;28;20178;-70
2022/09/01 09:21:34;;;;;;;1.27;1.17;;;19.40;73.30;19.40;96253.00;;;;5097718;28;20194;-69
2022/09/01 09:24:12;;;;;;;1.00;1.00;;;19.70;71.40;19.80;96258.00;;;;5115564;28;20217;-68
2022/09/01 09:26:38;;;;;;;0.90;0.90;;;20.00;70.40;20.00;96262.00;;;;5115500;28;20264;-70
2022/09/01 09:29:05;;;;;;;0.70;0.70;;;20.20;69.70;19.90;96254.00;;;;5115517;28;20316;-69
2022/09/01 09:31:36;;;;;;;1.20;1.20;;;20.30;69.10;19.90;96252.00;;;;5115344;28;20604;-69
2022/09/01 09:34:02;;;;;;;0.50;0.50;;;20.40;68.30;19.60;96255.00;;;;5115529;28;20198;-71
2022/09/01 09:36:35;;;;;;;0.80;0.80;;;20.10;67.20;19.90;96258.00;;;;5115273;28;20602;-68
2022/09/01 09:39:10;;;;;;;0.70;0.70;;;20.20;67.30;19.90;96255.00;;;;5115312;28;20181;-71
2022/09/01 09:41:40;;;;;;;0.83;0.83;;;20.20;67.10;19.70;96255.00;;;;5115170;28;20190;-70
2022/09/01 09:44:24;;;;;;;1.20;0.63;;;20.10;67.40;19.80;96249.00;;;;5097051;28;20672;-69
2022/09/01 09:46:51;;;;;;;1.00;1.00;;;20.30;66.00;20.00;96249.00;;;;5115117;28;20249;-69
2022/09/01 09:49:23;;;;;;;0.73;0.73;;;20.40;66.70;20.10;96253.00;;;;5114963;28;20237;-69
2022/09/01 09:51:54;;;;;;;1.10;1.10;;;20.40;67.20;20.00;96249.00;;;;5097250;28;20217;-70
2022/09/01 09:54:24;;;;;;;1.17;1.13;;;20.50;66.30;20.30;96248.00;;;;5115049;28;20227;-70
2022/09/01 09:57:10;;;;;;;0.90;0.90;;;20.70;66.90;20.60;96248.00;;;;5114936;28;20583;-69
2022/09/01 09:59:42;;;;;;;1.03;1.03;;;20.90;67.20;20.90;96251.00;;;;5115006;28;20212;-69
2022/09/01 10:02:31;;;;;;;0.60;0.60;;;21.20;65.90;20.40;96248.00;;;;5096950;28;20198;-69
2022/09/01 10:04:59;;;;;;;0.97;0.97;;;20.90;62.10;20.20;96248.00;;;;5114872;28;20654;-69
2022/09/01 10:07:33;;;;;;;1.90;1.27;;;20.70;62.00;20.20;96231.00;;;;5096851;28;20633;-69
2022/09/01 10:10:06;;;;;;;0.63;0.63;;;20.60;62.50;20.30;96248.00;;;;5114871;28;20295;-70
2022/09/01 10:12:33;;;;;;;1.67;1.57;;;20.60;62.10;20.00;96248.00;;;;5114697;28;20378;-70
2022/09/01 10:15:05;;;;;;;1.70;0.87;;;20.50;62.30;20.30;96243.00;;;;5114678;28;20219;-69
2022/09/01 10:17:37;;;;;;;1.40;1.40;;;20.70;62.30;19.90;96251.00;;;;5114691;28;20695;-70
2022/09/01 10:20:10;;;;;;;1.03;1.03;;;20.40;62.70;20.40;96249.00;;;;5114519;28;20220;-67
2022/09/01 10:22:39;;;;;;;1.50;1.40;;;20.70;63.50;20.20;96251.00;;;;5114591;28;20222;-71
2022/09/01 10:25:12;;;;;;;1.00;0.97;;;20.70;62.80;20.30;96244.00;;;;5096357;28;20324;-70
2022/09/01 10:27:48;;;;;;;0.87;0.87;;;20.70;62.90;20.40;96238.00;;;;5114469;28;20248;-71
2022/09/01 10:30:17;;;;;;;1.03;0.80;;;20.70;62.00;20.70;96242.00;;;;5114661;28;20194;-70
2022/09/01 10:32:48;;;;;;;2.40;1.33;;;21.00;61.70;20.90;96237.00;;;;5114630;28;20232;-75
2022/09/01 10:35:22;;;;;;;0.97;0.97;;;21.20;61.70;21.40;96242.00;;;;5114384;28;20560;-73
2022/09/01 10:37:51;;;;;;;1.10;1.10;;;;;21.00;96251.00;;;;5096498;28;20236;-69
2022/09/01 10:40:39;;;;;;;1.33;1.27;;;21.20;59.00;20.90;96249.00;;;;5114373;28;20228;-67
2022/09/01 10:43:33;;;;;;;1.63;1.53;;;21.30;59.90;20.60;96241.00;;;;5114252;28;20190;-67
2022/09/01 10:45:59;;;;;;;0.70;0.70;;;21.20;58.70;20.70;96244.00;;;;5114288;28;20263;-63
2022/09/01 10:48:32;;;;;;;1.47;1.40;;;21.20;60.10;21.30;96232.00;;;;5114360;28;20621;-67
2022/09/01 10:51:42;;;;;;;1.87;1.77;;;21.50;58.00;21.40;96210.00;;;;5114317;28;20194;-67
2022/09/01 10:54:47;;;;;;;0.93;0.93;;;21.60;57.60;22.00;96204.00;;;;5090027;28;20286;-59
2022/09/01 10:57:40;;;;;;;0.93;0.93;;;22.10;56.00;21.90;96228.00;;;;5100479;28;20270;-60
2022/09/01 11:00:49;;;;;;;1.20;1.20;;;22.40;51.90;21.80;96201.00;;;;5114069;28;20201;-60
2022/09/01 11:03:36;;;;;;;1.03;1.03;;;;;21.60;96209.00;;;;5114112;28;20658;-62
2022/09/01 11:06:06;;;;;;;0.63;0.63;;;;;22.10;96230.00;;;;5114098;28;20213;-64
2022/09/01 11:08:55;;;;;;;1.43;1.37;;;22.30;60.80;22.10;96233.00;;;;5096406;28;20213;-62
2022/09/01 11:11:30;;;;;;;0.95;0.95;;;;;21.60;96223.00;;;;5114011;28;20186;-62
2022/09/01 11:14:02;;;;;;;1.00;1.00;;;22.10;49.30;21.90;96223.00;;;;5113987;28;20190;-62
2022/09/01 11:16:36;;;;;;;0.90;0.90;;;22.20;51.20;21.30;96207.00;;;;5113920;28;20197;-62
2022/09/01 11:19:39;;;;;;;0.60;0.60;;;21.80;50.90;22.20;96199.00;;;;5113879;28;20198;-62
2022/09/01 11:22:23;;;;;;;0.90;0.90;;;22.30;50.80;22.10;96230.00;;;;5113768;28;20656;-60
2022/09/01 11:25:06;;;;;;;0.70;0.70;;;22.50;48.50;22.00;96219.00;;;;5113862;28;20212;-61
2022/09/01 11:28:03;;;;;;;0.50;0.50;;;22.40;48.60;22.20;96218.00;;;;5113758;28;20248;-63
2022/09/01 11:30:51;;;;;;;0.60;0.60;;;22.60;49.70;22.50;96223.00;;;;5113584;28;20703;-61